sensor_id;sensor_type;location;lat;lon;timestamp;temperature;humidity
30520;DHT22;17300;50.374;8.006;2023-03-01T00:00:20;3.50;37.60
30520;DHT22;17300;50.374;8.006;2023-03-01T00:02:47;3.50;37.60
30520;DHT22;17300;50.374;8.006;2023-03-01T00:05:21;3.50;37.70
30520;DHT22;17300;50.374;8.006;2023-03-01T00:07:52;3.40;38.10
30520;DHT22;17300;50.374;8.006;2023-03-01T00:10:19;3.50;37.90
30520;DHT22;17300;50.374;8.006;2023-03-01T00:12:45;3.40;37.80
30520;DHT22;17300;50.374;8.006;2023-03-01T00:15:12;3.40;37.90
30520;DHT22;17300;50.374;8.006;2023-03-01T00:17:39;3.40;37.90
30520;DHT22;17300;50.374;8.006;2023-03-01T00:20:07;3.40;38.00
30520;DHT22;17300;50.374;8.006;2023-03-01T00:22:36;3.40;38.10
30520;DHT22;17300;50.374;8.006;2023-03-01T00:25:04;3.40;38.10
30520;DHT22;17300;50.374;8.006;2023-03-01T00:27:30;3.40;38.10
30520;DHT22;17300;50.374;8.006;2023-03-01T00:29:57;3.40;38.10
30520;DHT22;17300;50.374;8.006;2023-03-01T00:32:24;3.40;38.20
30520;DHT22;17300;50.374;8.006;2023-03-01T00:34:51;3.40;38.20
30520;DHT22;17300;50.374;8.006;2023-03-01T00:37:20;3.40;38.20
30520;DHT22;17300;50.374;8.006;2023-03-01T00:39:48;3.40;38.20
30520;DHT22;17300;50.374;8.006;2023-03-01T00:42:16;3.30;38.30
30520;DHT22;17300;50.374;8.006;2023-03-01T00:44:42;3.40;38.30
30520;DHT22;17300;50.374;8.006;2023-03-01T00:47:09;3.40;38.40
30520;DHT22;17300;50.374;8.006;2023-03-01T00:49:35;3.40;38.40
30520;DHT22;17300;50.374;8.006;2023-03-01T00:52:02;3.30;38.40
30520;DHT22;17300;50.374;8.006;2023-03-01T00:54:29;3.30;38.40
30520;DHT22;17300;50.374;8.006;2023-03-01T00:56:57;3.30;38.40
30520;DHT22;17300;50.374;8.006;2023-03-01T00:59:23;3.30;38.50
30520;DHT22;17300;50.374;8.006;2023-03-01T01:01:50;3.30;38.50
30520;DHT22;17300;50.374;8.006;2023-03-01T01:04:17;3.30;38.50
30520;DHT22;17300;50.374;8.006;2023-03-01T01:06:45;3.30;38.60
30520;DHT22;17300;50.374;8.006;2023-03-01T01:09:13;3.30;38.70
30520;DHT22;17300;50.374;8.006;2023-03-01T01:11:43;3.20;38.70
30520;DHT22;17300;50.374;8.006;2023-03-01T01:14:11;3.20;38.70
30520;DHT22;17300;50.374;8.006;2023-03-01T01:16:38;3.20;38.70
30520;DHT22;17300;50.374;8.006;2023-03-01T01:19:04;3.20;38.70
30520;DHT22;17300;50.374;8.006;2023-03-01T01:21:31;3.20;38.70
30520;DHT22;17300;50.374;8.006;2023-03-01T01:23:58;3.20;38.70
30520;DHT22;17300;50.374;8.006;2023-03-01T01:26:27;3.20;39.30
30520;DHT22;17300;50.374;8.006;2023-03-01T01:28:54;3.20;38.80
30520;DHT22;17300;50.374;8.006;2023-03-01T01:31:23;3.20;38.80
30520;DHT22;17300;50.374;8.006;2023-03-01T01:33:50;3.10;38.80
30520;DHT22;17300;50.374;8.006;2023-03-01T01:36:17;3.10;38.70
30520;DHT22;17300;50.374;8.006;2023-03-01T01:38:44;3.10;38.80
30520;DHT22;17300;50.374;8.006;2023-03-01T01:41:12;3.10;38.90
30520;DHT22;17300;50.374;8.006;2023-03-01T01:43:40;3.10;39.00
30520;DHT22;17300;50.374;8.006;2023-03-01T01:46:15;3.10;39.00
30520;DHT22;17300;50.374;8.006;2023-03-01T01:48:48;3.10;39.30
30520;DHT22;17300;50.374;8.006;2023-03-01T01:51:19;3.10;39.20
30520;DHT22;17300;50.374;8.006;2023-03-01T01:53:51;3.00;39.20
30520;DHT22;17300;50.374;8.006;2023-03-01T01:56:20;3.10;39.20
30520;DHT22;17300;50.374;8.006;2023-03-01T01:58:47;3.00;39.20
30520;DHT22;17300;50.374;8.006;2023-03-01T02:01:14;3.00;39.20
30520;DHT22;17300;50.374;8.006;2023-03-01T02:03:44;3.00;39.20
30520;DHT22;17300;50.374;8.006;2023-03-01T02:06:17;3.00;39.20
30520;DHT22;17300;50.374;8.006;2023-03-01T02:08:47;3.00;39.20
30520;DHT22;17300;50.374;8.006;2023-03-01T02:11:15;3.00;39.20
30520;DHT22;17300;50.374;8.006;2023-03-01T02:13:42;3.00;39.20
30520;DHT22;17300;50.374;8.006;2023-03-01T02:16:10;3.00;39.20
30520;DHT22;17300;50.374;8.006;2023-03-01T02:18:38;3.00;39.30
30520;DHT22;17300;50.374;8.006;2023-03-01T02:21:16;3.00;39.30
30520;DHT22;17300;50.374;8.006;2023-03-01T02:23:44;3.00;39.70
30520;DHT22;17300;50.374;8.006;2023-03-01T02:26:18;3.00;39.30
30520;DHT22;17300;50.374;8.006;2023-03-01T02:28:48;3.00;39.70
30520;DHT22;17300;50.374;8.006;2023-03-01T02:31:18;3.00;39.50
30520;DHT22;17300;50.374;8.006;2023-03-01T02:34:04;2.90;39.40
30520;DHT22;17300;50.374;8.006;2023-03-01T02:36:35;2.90;39.30
30520;DHT22;17300;50.374;8.006;2023-03-01T02:39:04;2.90;39.50
30520;DHT22;17300;50.374;8.006;2023-03-01T02:41:35;2.90;39.40
30520;DHT22;17300;50.374;8.006;2023-03-01T02:44:04;2.90;39.50
30520;DHT22;17300;50.374;8.006;2023-03-01T02:46:31;2.90;39.50
30520;DHT22;17300;50.374;8.006;2023-03-01T02:48:59;2.90;39.50
30520;DHT22;17300;50.374;8.006;2023-03-01T02:51:38;2.80;39.40
30520;DHT22;17300;50.374;8.006;2023-03-01T02:54:12;2.80;39.70
30520;DHT22;17300;50.374;8.006;2023-03-01T02:56:43;2.80;39.50
30520;DHT22;17300;50.374;8.006;2023-03-01T02:59:16;2.80;39.40
30520;DHT22;17300;50.374;8.006;2023-03-01T03:01:43;2.70;39.40
30520;DHT22;17300;50.374;8.006;2023-03-01T03:04:13;2.70;39.40
30520;DHT22;17300;50.374;8.006;2023-03-01T03:06:42;2.70;39.50
30520;DHT22;17300;50.374;8.006;2023-03-01T03:09:09;2.70;39.40
30520;DHT22;17300;50.374;8.006;2023-03-01T03:11:36;2.70;39.50
30520;DHT22;17300;50.374;8.006;2023-03-01T03:14:04;2.70;39.50
30520;DHT22;17300;50.374;8.006;2023-03-01T03:16:40;2.70;39.50
30520;DHT22;17300;50.374;8.006;2023-03-01T03:19:06;2.60;39.50
30520;DHT22;17300;50.374;8.006;2023-03-01T03:21:34;2.60;39.50
30520;DHT22;17300;50.374;8.006;2023-03-01T03:24:01;2.60;39.50
30520;DHT22;17300;50.374;8.006;2023-03-01T03:26:28;2.60;39.50
30520;DHT22;17300;50.374;8.006;2023-03-01T03:28:54;2.50;39.50
30520;DHT22;17300;50.374;8.006;2023-03-01T03:31:22;2.50;39.60
30520;DHT22;17300;50.374;8.006;2023-03-01T03:33:50;2.50;39.60
30520;DHT22;17300;50.374;8.006;2023-03-01T03:36:19;2.50;39.70
30520;DHT22;17300;50.374;8.006;2023-03-01T03:38:46;2.50;39.70
30520;DHT22;17300;50.374;8.006;2023-03-01T03:41:14;2.40;39.70
30520;DHT22;17300;50.374;8.006;2023-03-01T03:43:44;2.40;39.70
30520;DHT22;17300;50.374;8.006;2023-03-01T03:46:11;2.40;39.90
30520;DHT22;17300;50.374;8.006;2023-03-01T03:48:39;2.40;39.80
30520;DHT22;17300;50.374;8.006;2023-03-01T03:51:10;2.40;39.90
30520;DHT22;17300;50.374;8.006;2023-03-01T03:53:37;2.30;40.00
30520;DHT22;17300;50.374;8.006;2023-03-01T03:56:04;2.40;40.00
30520;DHT22;17300;50.374;8.006;2023-03-01T03:58:31;2.30;40.00
30520;DHT22;17300;50.374;8.006;2023-03-01T04:00:58;2.30;40.00
30520;DHT22;17300;50.374;8.006;2023-03-01T04:03:27;2.30;40.10
30520;DHT22;17300;50.374;8.006;2023-03-01T04:05:54;2.30;40.20
30520;DHT22;17300;50.374;8.006;2023-03-01T04:08:24;2.30;40.20
30520;DHT22;17300;50.374;8.006;2023-03-01T04:10:52;2.20;40.10
30520;DHT22;17300;50.374;8.006;2023-03-01T04:13:22;2.20;40.10
30520;DHT22;17300;50.374;8.006;2023-03-01T04:15:51;2.20;40.10
30520;DHT22;17300;50.374;8.006;2023-03-01T04:18:19;2.20;40.10
30520;DHT22;17300;50.374;8.006;2023-03-01T04:20:46;2.20;40.10
30520;DHT22;17300;50.374;8.006;2023-03-01T04:23:14;2.20;40.10
30520;DHT22;17300;50.374;8.006;2023-03-01T04:25:48;2.10;40.20
30520;DHT22;17300;50.374;8.006;2023-03-01T04:28:19;2.10;40.30
30520;DHT22;17300;50.374;8.006;2023-03-01T04:30:45;2.10;40.20
30520;DHT22;17300;50.374;8.006;2023-03-01T04:33:12;2.10;40.30
30520;DHT22;17300;50.374;8.006;2023-03-01T04:35:39;2.10;40.30
30520;DHT22;17300;50.374;8.006;2023-03-01T04:38:06;2.00;40.30
30520;DHT22;17300;50.374;8.006;2023-03-01T04:40:33;2.00;40.30
30520;DHT22;17300;50.374;8.006;2023-03-01T04:43:02;2.00;40.40
30520;DHT22;17300;50.374;8.006;2023-03-01T04:45:29;2.00;40.50
30520;DHT22;17300;50.374;8.006;2023-03-01T04:47:55;2.00;40.50
30520;DHT22;17300;50.374;8.006;2023-03-01T04:50:23;2.00;40.60
30520;DHT22;17300;50.374;8.006;2023-03-01T04:52:51;2.00;40.60
30520;DHT22;17300;50.374;8.006;2023-03-01T04:55:18;1.90;40.60
30520;DHT22;17300;50.374;8.006;2023-03-01T04:57:45;1.90;40.70
30520;DHT22;17300;50.374;8.006;2023-03-01T05:00:14;1.90;40.70
30520;DHT22;17300;50.374;8.006;2023-03-01T05:02:48;1.90;40.80
30520;DHT22;17300;50.374;8.006;2023-03-01T05:05:22;1.90;40.70
30520;DHT22;17300;50.374;8.006;2023-03-01T05:07:52;1.90;40.70
30520;DHT22;17300;50.374;8.006;2023-03-01T05:10:18;1.90;40.70
30520;DHT22;17300;50.374;8.006;2023-03-01T05:12:45;1.90;40.70
30520;DHT22;17300;50.374;8.006;2023-03-01T05:15:14;1.90;40.70
30520;DHT22;17300;50.374;8.006;2023-03-01T05:17:41;1.80;40.70
30520;DHT22;17300;50.374;8.006;2023-03-01T05:20:09;1.80;40.70
30520;DHT22;17300;50.374;8.006;2023-03-01T05:22:36;1.80;40.80
30520;DHT22;17300;50.374;8.006;2023-03-01T05:25:04;1.80;40.70
30520;DHT22;17300;50.374;8.006;2023-03-01T05:27:31;1.90;40.80
30520;DHT22;17300;50.374;8.006;2023-03-01T05:29:57;1.80;40.80
30520;DHT22;17300;50.374;8.006;2023-03-01T05:32:25;1.80;40.80
30520;DHT22;17300;50.374;8.006;2023-03-01T05:34:52;1.70;40.80
30520;DHT22;17300;50.374;8.006;2023-03-01T05:37:20;1.80;40.90
30520;DHT22;17300;50.374;8.006;2023-03-01T05:39:47;1.70;40.90
30520;DHT22;17300;50.374;8.006;2023-03-01T05:42:15;1.70;41.00
30520;DHT22;17300;50.374;8.006;2023-03-01T05:44:42;1.70;41.00
30520;DHT22;17300;50.374;8.006;2023-03-01T05:47:09;1.70;41.10
30520;DHT22;17300;50.374;8.006;2023-03-01T05:49:37;1.70;41.10
30520;DHT22;17300;50.374;8.006;2023-03-01T05:52:03;1.70;41.30
30520;DHT22;17300;50.374;8.006;2023-03-01T05:54:30;1.70;41.20
30520;DHT22;17300;50.374;8.006;2023-03-01T05:56:57;1.70;41.30
30520;DHT22;17300;50.374;8.006;2023-03-01T05:59:24;1.70;41.30
30520;DHT22;17300;50.374;8.006;2023-03-01T06:01:50;1.60;41.30
30520;DHT22;17300;50.374;8.006;2023-03-01T06:04:17;1.60;41.30
30520;DHT22;17300;50.374;8.006;2023-03-01T06:06:47;1.60;41.30
30520;DHT22;17300;50.374;8.006;2023-03-01T06:09:14;1.60;41.30
30520;DHT22;17300;50.374;8.006;2023-03-01T06:11:41;1.60;41.30
30520;DHT22;17300;50.374;8.006;2023-03-01T06:14:08;1.60;41.30
30520;DHT22;17300;50.374;8.006;2023-03-01T06:16:35;1.60;41.30
30520;DHT22;17300;50.374;8.006;2023-03-01T06:19:02;1.60;41.40
30520;DHT22;17300;50.374;8.006;2023-03-01T06:21:29;1.60;41.40
30520;DHT22;17300;50.374;8.006;2023-03-01T06:23:57;1.60;41.50
30520;DHT22;17300;50.374;8.006;2023-03-01T06:26:24;1.60;41.60
30520;DHT22;17300;50.374;8.006;2023-03-01T06:28:50;1.60;41.60
30520;DHT22;17300;50.374;8.006;2023-03-01T06:31:17;1.60;41.70
30520;DHT22;17300;50.374;8.006;2023-03-01T06:33:43;1.70;41.90
30520;DHT22;17300;50.374;8.006;2023-03-01T06:36:11;1.70;41.90
30520;DHT22;17300;50.374;8.006;2023-03-01T06:38:37;1.70;42.00
30520;DHT22;17300;50.374;8.006;2023-03-01T06:41:07;1.70;42.00
30520;DHT22;17300;50.374;8.006;2023-03-01T06:43:34;1.80;42.20
30520;DHT22;17300;50.374;8.006;2023-03-01T06:46:03;1.80;42.20
30520;DHT22;17300;50.374;8.006;2023-03-01T06:48:30;1.90;42.50
30520;DHT22;17300;50.374;8.006;2023-03-01T06:50:58;2.00;42.40
30520;DHT22;17300;50.374;8.006;2023-03-01T06:53:24;2.00;42.40
30520;DHT22;17300;50.374;8.006;2023-03-01T06:55:54;2.10;42.50
30520;DHT22;17300;50.374;8.006;2023-03-01T06:58:22;2.10;42.70
30520;DHT22;17300;50.374;8.006;2023-03-01T07:00:49;2.20;42.70
30520;DHT22;17300;50.374;8.006;2023-03-01T07:03:15;2.30;42.80
30520;DHT22;17300;50.374;8.006;2023-03-01T07:05:42;2.30;42.80
30520;DHT22;17300;50.374;8.006;2023-03-01T07:08:09;2.50;42.90
30520;DHT22;17300;50.374;8.006;2023-03-01T07:10:36;2.60;43.00
30520;DHT22;17300;50.374;8.006;2023-03-01T07:13:03;2.60;43.00
30520;DHT22;17300;50.374;8.006;2023-03-01T07:15:33;2.80;43.10
30520;DHT22;17300;50.374;8.006;2023-03-01T07:18:00;2.90;43.10
30520;DHT22;17300;50.374;8.006;2023-03-01T07:20:26;3.00;43.10
30520;DHT22;17300;50.374;8.006;2023-03-01T07:22:54;3.10;43.10
30520;DHT22;17300;50.374;8.006;2023-03-01T07:25:21;3.20;43.10
30520;DHT22;17300;50.374;8.006;2023-03-01T07:27:49;3.30;43.20
30520;DHT22;17300;50.374;8.006;2023-03-01T07:30:17;3.50;43.30
30520;DHT22;17300;50.374;8.006;2023-03-01T07:32:45;3.60;43.20
30520;DHT22;17300;50.374;8.006;2023-03-01T07:35:12;3.70;43.90
30520;DHT22;17300;50.374;8.006;2023-03-01T07:37:40;3.90;43.30
30520;DHT22;17300;50.374;8.006;2023-03-01T07:40:11;4.00;43.30
30520;DHT22;17300;50.374;8.006;2023-03-01T07:42:37;4.20;43.40
30520;DHT22;17300;50.374;8.006;2023-03-01T07:45:06;4.30;43.60
30520;DHT22;17300;50.374;8.006;2023-03-01T07:47:33;4.50;44.10
30520;DHT22;17300;50.374;8.006;2023-03-01T07:50:01;4.80;45.10
30520;DHT22;17300;50.374;8.006;2023-03-01T07:52:28;5.20;45.80
30520;DHT22;17300;50.374;8.006;2023-03-01T07:54:54;5.70;46.60
30520;DHT22;17300;50.374;8.006;2023-03-01T07:57:21;6.30;47.60
30520;DHT22;17300;50.374;8.006;2023-03-01T07:59:48;6.90;48.60
30520;DHT22;17300;50.374;8.006;2023-03-01T08:02:14;7.80;49.70
30520;DHT22;17300;50.374;8.006;2023-03-01T08:04:41;8.70;50.60
30520;DHT22;17300;50.374;8.006;2023-03-01T08:07:09;9.70;51.20
30520;DHT22;17300;50.374;8.006;2023-03-01T08:09:36;10.80;50.40
30520;DHT22;17300;50.374;8.006;2023-03-01T08:12:03;11.90;50.30
30520;DHT22;17300;50.374;8.006;2023-03-01T08:14:31;13.10;50.20
30520;DHT22;17300;50.374;8.006;2023-03-01T08:16:58;14.20;49.50
30520;DHT22;17300;50.374;8.006;2023-03-01T08:19:24;15.30;48.70
30520;DHT22;17300;50.374;8.006;2023-03-01T08:21:53;16.30;47.50
30520;DHT22;17300;50.374;8.006;2023-03-01T08:24:21;17.30;45.80
30520;DHT22;17300;50.374;8.006;2023-03-01T08:26:48;18.10;44.20
30520;DHT22;17300;50.374;8.006;2023-03-01T08:29:14;18.80;43.10
30520;DHT22;17300;50.374;8.006;2023-03-01T08:31:41;19.50;42.10
30520;DHT22;17300;50.374;8.006;2023-03-01T08:34:11;20.10;41.30
30520;DHT22;17300;50.374;8.006;2023-03-01T08:36:39;20.70;40.20
30520;DHT22;17300;50.374;8.006;2023-03-01T08:39:07;21.30;39.90
30520;DHT22;17300;50.374;8.006;2023-03-01T08:41:36;21.80;39.30
30520;DHT22;17300;50.374;8.006;2023-03-01T08:44:03;22.30;38.60
30520;DHT22;17300;50.374;8.006;2023-03-01T08:46:31;22.70;38.00
30520;DHT22;17300;50.374;8.006;2023-03-01T08:48:59;23.20;37.20
30520;DHT22;17300;50.374;8.006;2023-03-01T08:51:26;23.60;36.70
30520;DHT22;17300;50.374;8.006;2023-03-01T08:53:54;24.00;36.00
30520;DHT22;17300;50.374;8.006;2023-03-01T08:56:21;24.30;35.40
30520;DHT22;17300;50.374;8.006;2023-03-01T08:58:49;24.70;34.70
30520;DHT22;17300;50.374;8.006;2023-03-01T09:01:17;24.90;33.90
30520;DHT22;17300;50.374;8.006;2023-03-01T09:03:44;25.10;33.50
30520;DHT22;17300;50.374;8.006;2023-03-01T09:06:12;25.30;32.90
30520;DHT22;17300;50.374;8.006;2023-03-01T09:08:41;25.50;32.50
30520;DHT22;17300;50.374;8.006;2023-03-01T09:11:10;25.60;31.80
30520;DHT22;17300;50.374;8.006;2023-03-01T09:13:38;25.80;31.50
30520;DHT22;17300;50.374;8.006;2023-03-01T09:16:07;25.90;30.90
30520;DHT22;17300;50.374;8.006;2023-03-01T09:18:35;26.00;30.70
30520;DHT22;17300;50.374;8.006;2023-03-01T09:21:03;26.10;30.50
30520;DHT22;17300;50.374;8.006;2023-03-01T09:23:33;26.30;30.50
30520;DHT22;17300;50.374;8.006;2023-03-01T09:26:00;26.50;30.30
30520;DHT22;17300;50.374;8.006;2023-03-01T09:28:26;26.70;30.00
30520;DHT22;17300;50.374;8.006;2023-03-01T09:30:53;26.90;29.50
30520;DHT22;17300;50.374;8.006;2023-03-01T09:33:21;27.00;29.10
30520;DHT22;17300;50.374;8.006;2023-03-01T09:35:48;27.20;29.00
30520;DHT22;17300;50.374;8.006;2023-03-01T09:38:14;27.40;29.00
30520;DHT22;17300;50.374;8.006;2023-03-01T09:40:44;27.60;28.80
30520;DHT22;17300;50.374;8.006;2023-03-01T09:43:18;27.80;28.20
30520;DHT22;17300;50.374;8.006;2023-03-01T09:45:46;28.00;27.80
30520;DHT22;17300;50.374;8.006;2023-03-01T09:48:17;28.10;27.40
30520;DHT22;17300;50.374;8.006;2023-03-01T09:50:45;28.10;26.60
30520;DHT22;17300;50.374;8.006;2023-03-01T09:53:15;28.20;26.80
30520;DHT22;17300;50.374;8.006;2023-03-01T09:55:44;28.10;26.60
30520;DHT22;17300;50.374;8.006;2023-03-01T09:58:29;28.10;26.30
30520;DHT22;17300;50.374;8.006;2023-03-01T10:01:00;28.10;25.50
30520;DHT22;17300;50.374;8.006;2023-03-01T10:03:35;28.10;26.30
30520;DHT22;17300;50.374;8.006;2023-03-01T10:06:10;28.30;26.10
30520;DHT22;17300;50.374;8.006;2023-03-01T10:08:40;28.40;25.70
30520;DHT22;17300;50.374;8.006;2023-03-01T10:11:21;28.60;25.80
30520;DHT22;17300;50.374;8.006;2023-03-01T10:13:52;28.80;25.20
30520;DHT22;17300;50.374;8.006;2023-03-01T10:16:24;29.00;25.80
30520;DHT22;17300;50.374;8.006;2023-03-01T10:18:55;29.10;25.90
30520;DHT22;17300;50.374;8.006;2023-03-01T10:21:28;29.30;25.80
30520;DHT22;17300;50.374;8.006;2023-03-01T10:24:00;29.50;25.20
30520;DHT22;17300;50.374;8.006;2023-03-01T10:26:42;29.60;25.00
30520;DHT22;17300;50.374;8.006;2023-03-01T10:29:14;29.80;24.60
30520;DHT22;17300;50.374;8.006;2023-03-01T10:31:43;29.90;24.60
30520;DHT22;17300;50.374;8.006;2023-03-01T10:34:14;30.00;24.30
30520;DHT22;17300;50.374;8.006;2023-03-01T10:36:46;30.00;24.10
30520;DHT22;17300;50.374;8.006;2023-03-01T10:39:16;29.90;23.90
30520;DHT22;17300;50.374;8.006;2023-03-01T10:41:58;29.90;23.80
30520;DHT22;17300;50.374;8.006;2023-03-01T10:44:41;29.90;22.80
30520;DHT22;17300;50.374;8.006;2023-03-01T10:47:18;29.70;22.70
30520;DHT22;17300;50.374;8.006;2023-03-01T10:49:54;29.50;22.90
30520;DHT22;17300;50.374;8.006;2023-03-01T10:52:24;29.40;22.90
30520;DHT22;17300;50.374;8.006;2023-03-01T10:54:54;29.20;22.90
30520;DHT22;17300;50.374;8.006;2023-03-01T10:57:30;29.00;23.10
30520;DHT22;17300;50.374;8.006;2023-03-01T11:00:14;28.80;22.30
30520;DHT22;17300;50.374;8.006;2023-03-01T11:02:42;28.50;22.40
30520;DHT22;17300;50.374;8.006;2023-03-01T11:05:17;28.30;22.90
30520;DHT22;17300;50.374;8.006;2023-03-01T11:07:50;28.00;22.20
30520;DHT22;17300;50.374;8.006;2023-03-01T11:10:19;27.80;22.60
30520;DHT22;17300;50.374;8.006;2023-03-01T11:12:46;27.50;23.00
30520;DHT22;17300;50.374;8.006;2023-03-01T11:15:25;27.40;23.10
30520;DHT22;17300;50.374;8.006;2023-03-01T11:17:52;27.20;22.80
30520;DHT22;17300;50.374;8.006;2023-03-01T11:20:25;27.00;23.10
30520;DHT22;17300;50.374;8.006;2023-03-01T11:22:56;26.80;22.70
30520;DHT22;17300;50.374;8.006;2023-03-01T11:25:26;26.60;22.90
30520;DHT22;17300;50.374;8.006;2023-03-01T11:27:54;26.40;23.00
30520;DHT22;17300;50.374;8.006;2023-03-01T11:30:25;26.20;23.20
30520;DHT22;17300;50.374;8.006;2023-03-01T11:33:03;26.00;22.90
30520;DHT22;17300;50.374;8.006;2023-03-01T11:35:32;25.80;22.60
30520;DHT22;17300;50.374;8.006;2023-03-01T11:38:14;25.60;22.80
30520;DHT22;17300;50.374;8.006;2023-03-01T11:40:46;25.30;22.10
30520;DHT22;17300;50.374;8.006;2023-03-01T11:43:19;24.90;21.50
30520;DHT22;17300;50.374;8.006;2023-03-01T11:46:11;24.50;21.80
30520;DHT22;17300;50.374;8.006;2023-03-01T11:48:51;24.10;21.70
30520;DHT22;17300;50.374;8.006;2023-03-01T11:51:24;23.60;21.50
30520;DHT22;17300;50.374;8.006;2023-03-01T11:54:05;23.20;21.70
30520;DHT22;17300;50.374;8.006;2023-03-01T11:56:35;22.80;21.80
30520;DHT22;17300;50.374;8.006;2023-03-01T11:59:21;22.40;21.80
30520;DHT22;17300;50.374;8.006;2023-03-01T12:02:10;22.10;22.10
30520;DHT22;17300;50.374;8.006;2023-03-01T12:05:10;21.80;21.90
30520;DHT22;17300;50.374;8.006;2023-03-01T12:07:46;21.40;22.30
30520;DHT22;17300;50.374;8.006;2023-03-01T12:10:26;21.20;22.30
30520;DHT22;17300;50.374;8.006;2023-03-01T12:13:09;20.90;22.40
30520;DHT22;17300;50.374;8.006;2023-03-01T12:16:06;20.70;22.20
30520;DHT22;17300;50.374;8.006;2023-03-01T12:18:50;20.40;22.20
30520;DHT22;17300;50.374;8.006;2023-03-01T12:21:28;20.20;22.50
30520;DHT22;17300;50.374;8.006;2023-03-01T12:24:14;20.00;22.50
30520;DHT22;17300;50.374;8.006;2023-03-01T12:27:00;19.70;22.50
30520;DHT22;17300;50.374;8.006;2023-03-01T12:29:36;19.60;22.50
30520;DHT22;17300;50.374;8.006;2023-03-01T12:32:32;19.50;22.80
30520;DHT22;17300;50.374;8.006;2023-03-01T12:35:13;19.30;22.80
30520;DHT22;17300;50.374;8.006;2023-03-01T12:37:53;19.30;23.20
30520;DHT22;17300;50.374;8.006;2023-03-01T12:40:36;19.10;22.70
30520;DHT22;17300;50.374;8.006;2023-03-01T12:43:19;19.00;23.30
30520;DHT22;17300;50.374;8.006;2023-03-01T12:49:09;18.70;23.00
30520;DHT22;17300;50.374;8.006;2023-03-01T12:52:35;18.50;23.30
30520;DHT22;17300;50.374;8.006;2023-03-01T12:55:31;18.40;23.30
30520;DHT22;17300;50.374;8.006;2023-03-01T12:58:17;18.30;23.40
30520;DHT22;17300;50.374;8.006;2023-03-01T13:08:29;17.90;23.20
30520;DHT22;17300;50.374;8.006;2023-03-01T13:11:17;17.80;23.50
30520;DHT22;17300;50.374;8.006;2023-03-01T13:20:48;17.40;23.70
30520;DHT22;17300;50.374;8.006;2023-03-01T13:23:26;17.40;23.60
30520;DHT22;17300;50.374;8.006;2023-03-01T13:26:17;17.20;23.40
30520;DHT22;17300;50.374;8.006;2023-03-01T13:28:53;17.10;23.50
30520;DHT22;17300;50.374;8.006;2023-03-01T13:34:48;16.90;23.50
30520;DHT22;17300;50.374;8.006;2023-03-01T13:37:26;16.70;23.50
30520;DHT22;17300;50.374;8.006;2023-03-01T13:40:00;16.60;23.50
30520;DHT22;17300;50.374;8.006;2023-03-01T13:42:42;16.40;23.50
30520;DHT22;17300;50.374;8.006;2023-03-01T13:45:23;16.30;23.90
30520;DHT22;17300;50.374;8.006;2023-03-01T13:47:55;16.20;24.20
30520;DHT22;17300;50.374;8.006;2023-03-01T13:50:25;16.10;24.40
30520;DHT22;17300;50.374;8.006;2023-03-01T13:52:56;16.10;24.30
30520;DHT22;17300;50.374;8.006;2023-03-01T13:55:29;16.00;24.30
30520;DHT22;17300;50.374;8.006;2023-03-01T13:58:00;16.00;24.10
30520;DHT22;17300;50.374;8.006;2023-03-01T14:00:31;15.90;24.00
30520;DHT22;17300;50.374;8.006;2023-03-01T14:03:19;15.80;23.90
30520;DHT22;17300;50.374;8.006;2023-03-01T14:05:59;15.70;24.10
30520;DHT22;17300;50.374;8.006;2023-03-01T14:08:30;15.60;24.10
30520;DHT22;17300;50.374;8.006;2023-03-01T14:11:29;15.50;24.10
30520;DHT22;17300;50.374;8.006;2023-03-01T14:14:20;15.40;24.40
30520;DHT22;17300;50.374;8.006;2023-03-01T14:16:57;15.40;24.40
30520;DHT22;17300;50.374;8.006;2023-03-01T14:19:28;15.40;24.40
30520;DHT22;17300;50.374;8.006;2023-03-01T14:22:12;15.30;24.30
30520;DHT22;17300;50.374;8.006;2023-03-01T14:24:46;15.30;24.40
30520;DHT22;17300;50.374;8.006;2023-03-01T14:27:15;15.20;24.70
30520;DHT22;17300;50.374;8.006;2023-03-01T14:29:42;15.20;24.70
30520;DHT22;17300;50.374;8.006;2023-03-01T14:32:17;15.10;24.70
30520;DHT22;17300;50.374;8.006;2023-03-01T14:34:46;15.20;24.80
30520;DHT22;17300;50.374;8.006;2023-03-01T14:37:21;15.10;24.70
30520;DHT22;17300;50.374;8.006;2023-03-01T14:39:50;15.10;24.80
30520;DHT22;17300;50.374;8.006;2023-03-01T14:42:18;15.10;24.80
30520;DHT22;17300;50.374;8.006;2023-03-01T14:44:48;15.10;24.80
30520;DHT22;17300;50.374;8.006;2023-03-01T14:47:23;15.00;24.90
30520;DHT22;17300;50.374;8.006;2023-03-01T14:49:56;15.00;24.90
30520;DHT22;17300;50.374;8.006;2023-03-01T14:52:27;15.00;25.00
30520;DHT22;17300;50.374;8.006;2023-03-01T14:54:58;15.00;25.30
30520;DHT22;17300;50.374;8.006;2023-03-01T14:57:25;15.00;25.10
30520;DHT22;17300;50.374;8.006;2023-03-01T14:59:53;15.00;24.70
30520;DHT22;17300;50.374;8.006;2023-03-01T15:02:22;15.00;25.00
30520;DHT22;17300;50.374;8.006;2023-03-01T15:04:51;14.90;25.10
30520;DHT22;17300;50.374;8.006;2023-03-01T15:07:19;14.90;25.00
30520;DHT22;17300;50.374;8.006;2023-03-01T15:09:46;14.90;25.30
30520;DHT22;17300;50.374;8.006;2023-03-01T15:12:38;14.80;25.20
30520;DHT22;17300;50.374;8.006;2023-03-01T15:15:30;14.80;25.10
30520;DHT22;17300;50.374;8.006;2023-03-01T15:17:58;14.80;25.20
30520;DHT22;17300;50.374;8.006;2023-03-01T15:20:27;14.70;25.20
30520;DHT22;17300;50.374;8.006;2023-03-01T15:22:55;14.60;25.10
30520;DHT22;17300;50.374;8.006;2023-03-01T15:25:25;14.60;25.20
30520;DHT22;17300;50.374;8.006;2023-03-01T15:27:55;14.50;25.10
30520;DHT22;17300;50.374;8.006;2023-03-01T15:30:26;14.40;25.00
30520;DHT22;17300;50.374;8.006;2023-03-01T15:33:15;14.40;25.00
30520;DHT22;17300;50.374;8.006;2023-03-01T15:35:46;14.30;25.00
30520;DHT22;17300;50.374;8.006;2023-03-01T15:38:31;14.20;24.90
30520;DHT22;17300;50.374;8.006;2023-03-01T15:41:00;14.10;25.10
30520;DHT22;17300;50.374;8.006;2023-03-01T15:43:42;14.00;25.00
30520;DHT22;17300;50.374;8.006;2023-03-01T15:46:24;13.90;25.60
30520;DHT22;17300;50.374;8.006;2023-03-01T15:48:53;13.70;24.90
30520;DHT22;17300;50.374;8.006;2023-03-01T15:51:27;13.60;24.90
30520;DHT22;17300;50.374;8.006;2023-03-01T15:53:55;13.50;24.90
30520;DHT22;17300;50.374;8.006;2023-03-01T15:56:23;13.40;24.80
30520;DHT22;17300;50.374;8.006;2023-03-01T15:58:51;13.30;24.80
30520;DHT22;17300;50.374;8.006;2023-03-01T16:01:18;13.20;24.90
30520;DHT22;17300;50.374;8.006;2023-03-01T16:03:45;13.10;24.90
30520;DHT22;17300;50.374;8.006;2023-03-01T16:06:12;13.00;24.90
30520;DHT22;17300;50.374;8.006;2023-03-01T16:08:39;12.90;24.90
30520;DHT22;17300;50.374;8.006;2023-03-01T16:11:13;12.80;24.90
30520;DHT22;17300;50.374;8.006;2023-03-01T16:13:40;12.70;25.00
30520;DHT22;17300;50.374;8.006;2023-03-01T16:16:09;12.60;25.10
30520;DHT22;17300;50.374;8.006;2023-03-01T16:18:37;12.60;25.20
30520;DHT22;17300;50.374;8.006;2023-03-01T16:21:04;12.50;25.20